logo
Search for airport 
image banner adimage banner adimage banner ad
image banner ad

MRQN - Quebrada Naranjo

Located in Quepos, Costa Rica

ICAO - , IATA -

Data provided by Airmate  

General information

Coordinates: N9°23'35" W84°7'33"
Elevation is 21 feet MSL.
 
View others Airports in Puntarenas

Operational data

Special qualification required
Current time UTC:
Current local time:
Weather at : MRPV - Tobias Bolanos Intl ( 63 km )
TAF: MRPV 180507Z 1806/1906 10010KT 9999 BKN030 TX31/1818Z TN18/1810Z BECMG 1818/1821 25006KT
View NOTAMs / SUP AIP / TFR affecting this airport [VIEW]
Communications frequencies: [VIEW]

Runways:

RWY identifierQFULength (ft)Width (ft)SurfaceLDA (ft)
0100UNK
1900UNK

Airport contact information

Address: Quepos Costa Rica

Satellite view of MRQN